sensor_id;sensor_type;location;lat;lon;timestamp;P1;durP1;ratioP1;P2;durP2;ratioP2
7263;SDS011;3673;52.480;13.348;2023-05-10T00:01:27;7.05;;;4.78;;
7263;SDS011;3673;52.480;13.348;2023-05-10T00:03:54;6.40;;;5.22;;
7263;SDS011;3673;52.480;13.348;2023-05-10T00:06:22;7.13;;;4.88;;
7263;SDS011;3673;52.480;13.348;2023-05-10T00:08:49;6.55;;;5.03;;
7263;SDS011;3673;52.480;13.348;2023-05-10T00:11:15;8.05;;;4.60;;
7263;SDS011;3673;52.480;13.348;2023-05-10T00:13:42;10.70;;;4.65;;
7263;SDS011;3673;52.480;13.348;2023-05-10T00:16:09;7.63;;;5.13;;
7263;SDS011;3673;52.480;13.348;2023-05-10T00:18:38;6.72;;;4.70;;
7263;SDS011;3673;52.480;13.348;2023-05-10T00:21:04;7.60;;;5.05;;
7263;SDS011;3673;52.480;13.348;2023-05-10T00:23:33;9.82;;;4.82;;
7263;SDS011;3673;52.480;13.348;2023-05-10T00:25:59;6.75;;;5.57;;
7263;SDS011;3673;52.480;13.348;2023-05-10T00:28:27;5.75;;;4.60;;
7263;SDS011;3673;52.480;13.348;2023-05-10T00:30:54;5.53;;;4.85;;
7263;SDS011;3673;52.480;13.348;2023-05-10T00:33:21;6.97;;;4.88;;
7263;SDS011;3673;52.480;13.348;2023-05-10T00:35:48;8.18;;;4.88;;
7263;SDS011;3673;52.480;13.348;2023-05-10T00:38:15;6.45;;;5.50;;
7263;SDS011;3673;52.480;13.348;2023-05-10T00:40:43;9.10;;;4.97;;
7263;SDS011;3673;52.480;13.348;2023-05-10T00:43:10;9.77;;;4.90;;
7263;SDS011;3673;52.480;13.348;2023-05-10T00:45:37;5.43;;;4.68;;
7263;SDS011;3673;52.480;13.348;2023-05-10T00:48:06;6.35;;;4.80;;
7263;SDS011;3673;52.480;13.348;2023-05-10T00:50:33;6.93;;;5.18;;
7263;SDS011;3673;52.480;13.348;2023-05-10T00:53:00;6.43;;;4.82;;
7263;SDS011;3673;52.480;13.348;2023-05-10T00:55:28;6.65;;;4.70;;
7263;SDS011;3673;52.480;13.348;2023-05-10T00:57:57;7.70;;;5.00;;
7263;SDS011;3673;52.480;13.348;2023-05-10T01:00:24;7.30;;;5.15;;
7263;SDS011;3673;52.480;13.348;2023-05-10T01:02:51;9.35;;;5.40;;
7263;SDS011;3673;52.480;13.348;2023-05-10T01:05:20;6.10;;;4.95;;
7263;SDS011;3673;52.480;13.348;2023-05-10T01:07:47;10.18;;;5.63;;
7263;SDS011;3673;52.480;13.348;2023-05-10T01:10:14;6.65;;;5.35;;
7263;SDS011;3673;52.480;13.348;2023-05-10T01:12:41;9.52;;;6.30;;
7263;SDS011;3673;52.480;13.348;2023-05-10T01:15:12;9.27;;;4.95;;
7263;SDS011;3673;52.480;13.348;2023-05-10T01:17:41;5.72;;;5.10;;
7263;SDS011;3673;52.480;13.348;2023-05-10T01:20:10;6.13;;;5.30;;
7263;SDS011;3673;52.480;13.348;2023-05-10T01:22:42;7.57;;;5.05;;
7263;SDS011;3673;52.480;13.348;2023-05-10T01:26:05;7.00;;;5.68;;
7263;SDS011;3673;52.480;13.348;2023-05-10T01:28:58;9.52;;;5.47;;
7263;SDS011;3673;52.480;13.348;2023-05-10T01:32:01;7.72;;;5.47;;
7263;SDS011;3673;52.480;13.348;2023-05-10T01:34:50;6.60;;;5.38;;
7263;SDS011;3673;52.480;13.348;2023-05-10T01:37:29;6.95;;;5.28;;
7263;SDS011;3673;52.480;13.348;2023-05-10T01:40:08;7.95;;;5.57;;
7263;SDS011;3673;52.480;13.348;2023-05-10T01:42:45;7.88;;;5.70;;
7263;SDS011;3673;52.480;13.348;2023-05-10T01:45:20;6.60;;;5.43;;
7263;SDS011;3673;52.480;13.348;2023-05-10T01:47:57;8.82;;;5.50;;
7263;SDS011;3673;52.480;13.348;2023-05-10T01:50:31;7.80;;;5.82;;
7263;SDS011;3673;52.480;13.348;2023-05-10T01:53:00;6.90;;;5.43;;
7263;SDS011;3673;52.480;13.348;2023-05-10T01:55:29;7.88;;;5.63;;
7263;SDS011;3673;52.480;13.348;2023-05-10T01:58:02;5.82;;;5.22;;
7263;SDS011;3673;52.480;13.348;2023-05-10T02:00:34;6.43;;;5.35;;
7263;SDS011;3673;52.480;13.348;2023-05-10T02:03:05;9.35;;;6.13;;
7263;SDS011;3673;52.480;13.348;2023-05-10T02:05:34;8.75;;;5.72;;
7263;SDS011;3673;52.480;13.348;2023-05-10T02:08:02;9.90;;;5.63;;
7263;SDS011;3673;52.480;13.348;2023-05-10T02:10:33;7.75;;;5.65;;
7263;SDS011;3673;52.480;13.348;2023-05-10T02:13:01;8.45;;;5.03;;
7263;SDS011;3673;52.480;13.348;2023-05-10T02:15:31;8.52;;;5.32;;
7263;SDS011;3673;52.480;13.348;2023-05-10T02:17:59;7.30;;;5.20;;
7263;SDS011;3673;52.480;13.348;2023-05-10T02:20:29;7.10;;;5.30;;
7263;SDS011;3673;52.480;13.348;2023-05-10T02:22:58;7.05;;;5.45;;
7263;SDS011;3673;52.480;13.348;2023-05-10T02:25:27;7.68;;;5.65;;
7263;SDS011;3673;52.480;13.348;2023-05-10T02:27:55;7.25;;;5.30;;
7263;SDS011;3673;52.480;13.348;2023-05-10T02:30:24;8.35;;;5.05;;
7263;SDS011;3673;52.480;13.348;2023-05-10T02:32:51;6.05;;;5.03;;
7263;SDS011;3673;52.480;13.348;2023-05-10T02:35:19;6.18;;;5.07;;
7263;SDS011;3673;52.480;13.348;2023-05-10T02:37:48;6.68;;;5.45;;
7263;SDS011;3673;52.480;13.348;2023-05-10T02:40:16;7.55;;;5.13;;
7263;SDS011;3673;52.480;13.348;2023-05-10T02:42:43;9.75;;;5.60;;
7263;SDS011;3673;52.480;13.348;2023-05-10T02:45:14;7.85;;;6.80;;
7263;SDS011;3673;52.480;13.348;2023-05-10T02:47:45;6.93;;;5.68;;
7263;SDS011;3673;52.480;13.348;2023-05-10T02:50:12;7.68;;;5.32;;
7263;SDS011;3673;52.480;13.348;2023-05-10T02:52:40;7.07;;;4.78;;
7263;SDS011;3673;52.480;13.348;2023-05-10T02:55:14;8.10;;;4.93;;
7263;SDS011;3673;52.480;13.348;2023-05-10T02:57:43;6.68;;;5.80;;
7263;SDS011;3673;52.480;13.348;2023-05-10T03:00:14;6.10;;;5.20;;
7263;SDS011;3673;52.480;13.348;2023-05-10T03:02:41;7.03;;;5.40;;
7263;SDS011;3673;52.480;13.348;2023-05-10T03:05:08;9.52;;;5.55;;
7263;SDS011;3673;52.480;13.348;2023-05-10T03:07:35;8.05;;;5.00;;
7263;SDS011;3673;52.480;13.348;2023-05-10T03:10:02;6.85;;;4.70;;
7263;SDS011;3673;52.480;13.348;2023-05-10T03:12:33;5.97;;;4.93;;
7263;SDS011;3673;52.480;13.348;2023-05-10T03:17:52;11.82;;;6.05;;
7263;SDS011;3673;52.480;13.348;2023-05-10T03:20:24;8.90;;;5.13;;
7263;SDS011;3673;52.480;13.348;2023-05-10T03:23:00;6.63;;;5.18;;
7263;SDS011;3673;52.480;13.348;2023-05-10T03:25:32;6.20;;;4.97;;
7263;SDS011;3673;52.480;13.348;2023-05-10T03:28:01;7.07;;;5.45;;
7263;SDS011;3673;52.480;13.348;2023-05-10T03:30:30;7.10;;;4.45;;
7263;SDS011;3673;52.480;13.348;2023-05-10T03:32:58;5.95;;;4.07;;
7263;SDS011;3673;52.480;13.348;2023-05-10T03:35:31;10.02;;;4.95;;
7263;SDS011;3673;52.480;13.348;2023-05-10T03:37:58;9.68;;;5.38;;
7263;SDS011;3673;52.480;13.348;2023-05-10T03:40:25;9.32;;;4.63;;
7263;SDS011;3673;52.480;13.348;2023-05-10T03:42:53;6.90;;;5.28;;
7263;SDS011;3673;52.480;13.348;2023-05-10T03:45:21;7.82;;;4.72;;
7263;SDS011;3673;52.480;13.348;2023-05-10T03:47:48;7.00;;;4.60;;
7263;SDS011;3673;52.480;13.348;2023-05-10T03:50:15;7.32;;;5.13;;
7263;SDS011;3673;52.480;13.348;2023-05-10T03:52:43;7.75;;;5.03;;
7263;SDS011;3673;52.480;13.348;2023-05-10T03:55:10;8.57;;;5.00;;
7263;SDS011;3673;52.480;13.348;2023-05-10T03:57:37;8.90;;;4.82;;
7263;SDS011;3673;52.480;13.348;2023-05-10T04:00:04;7.03;;;4.57;;
7263;SDS011;3673;52.480;13.348;2023-05-10T04:02:33;6.13;;;5.05;;
7263;SDS011;3673;52.480;13.348;2023-05-10T04:05:00;11.73;;;5.20;;
7263;SDS011;3673;52.480;13.348;2023-05-10T04:07:27;9.30;;;5.00;;
7263;SDS011;3673;52.480;13.348;2023-05-10T04:09:54;6.25;;;4.97;;
7263;SDS011;3673;52.480;13.348;2023-05-10T04:12:21;8.95;;;5.80;;
7263;SDS011;3673;52.480;13.348;2023-05-10T04:14:47;6.78;;;4.70;;
7263;SDS011;3673;52.480;13.348;2023-05-10T04:17:14;9.05;;;4.45;;
7263;SDS011;3673;52.480;13.348;2023-05-10T04:19:42;6.68;;;4.53;;
7263;SDS011;3673;52.480;13.348;2023-05-10T04:22:09;6.38;;;4.65;;
7263;SDS011;3673;52.480;13.348;2023-05-10T04:24:36;8.85;;;4.72;;
7263;SDS011;3673;52.480;13.348;2023-05-10T04:27:03;7.75;;;4.50;;
7263;SDS011;3673;52.480;13.348;2023-05-10T04:29:29;7.18;;;4.30;;
7263;SDS011;3673;52.480;13.348;2023-05-10T04:31:56;7.28;;;4.15;;
7263;SDS011;3673;52.480;13.348;2023-05-10T04:34:23;10.27;;;4.53;;
7263;SDS011;3673;52.480;13.348;2023-05-10T04:36:51;7.35;;;4.72;;
7263;SDS011;3673;52.480;13.348;2023-05-10T04:39:18;6.70;;;5.22;;
7263;SDS011;3673;52.480;13.348;2023-05-10T04:41:45;7.13;;;4.60;;
7263;SDS011;3673;52.480;13.348;2023-05-10T04:44:12;6.88;;;4.78;;
7263;SDS011;3673;52.480;13.348;2023-05-10T04:46:38;5.97;;;3.85;;
7263;SDS011;3673;52.480;13.348;2023-05-10T04:49:05;6.38;;;4.10;;
7263;SDS011;3673;52.480;13.348;2023-05-10T04:51:32;7.38;;;4.05;;
7263;SDS011;3673;52.480;13.348;2023-05-10T04:54:00;6.03;;;4.40;;
7263;SDS011;3673;52.480;13.348;2023-05-10T04:56:27;8.13;;;4.20;;
7263;SDS011;3673;52.480;13.348;2023-05-10T04:58:54;4.50;;;3.90;;
7263;SDS011;3673;52.480;13.348;2023-05-10T05:01:21;11.27;;;4.10;;
7263;SDS011;3673;52.480;13.348;2023-05-10T05:03:48;5.25;;;3.83;;
7263;SDS011;3673;52.480;13.348;2023-05-10T05:06:15;8.57;;;4.40;;
7263;SDS011;3673;52.480;13.348;2023-05-10T05:08:41;6.43;;;4.53;;
7263;SDS011;3673;52.480;13.348;2023-05-10T05:11:09;6.38;;;4.40;;
7263;SDS011;3673;52.480;13.348;2023-05-10T05:13:36;5.53;;;3.63;;
7263;SDS011;3673;52.480;13.348;2023-05-10T05:16:04;8.30;;;3.70;;
7263;SDS011;3673;52.480;13.348;2023-05-10T05:18:31;9.18;;;4.22;;
7263;SDS011;3673;52.480;13.348;2023-05-10T05:20:58;6.18;;;3.63;;
7263;SDS011;3673;52.480;13.348;2023-05-10T05:23:25;4.75;;;3.83;;
7263;SDS011;3673;52.480;13.348;2023-05-10T05:25:52;6.47;;;3.65;;
7263;SDS011;3673;52.480;13.348;2023-05-10T05:28:21;6.78;;;4.20;;
7263;SDS011;3673;52.480;13.348;2023-05-10T05:30:47;8.95;;;4.22;;
7263;SDS011;3673;52.480;13.348;2023-05-10T05:33:14;5.50;;;4.15;;
7263;SDS011;3673;52.480;13.348;2023-05-10T05:35:41;4.43;;;3.53;;
7263;SDS011;3673;52.480;13.348;2023-05-10T05:38:12;6.20;;;3.80;;
7263;SDS011;3673;52.480;13.348;2023-05-10T05:40:39;5.68;;;4.15;;
7263;SDS011;3673;52.480;13.348;2023-05-10T05:43:06;11.65;;;4.70;;
7263;SDS011;3673;52.480;13.348;2023-05-10T05:45:34;4.38;;;3.20;;
7263;SDS011;3673;52.480;13.348;2023-05-10T05:48:00;5.75;;;3.78;;
7263;SDS011;3673;52.480;13.348;2023-05-10T05:50:27;5.97;;;3.85;;
7263;SDS011;3673;52.480;13.348;2023-05-10T05:52:54;5.57;;;4.13;;
7263;SDS011;3673;52.480;13.348;2023-05-10T05:55:22;5.25;;;3.80;;
7263;SDS011;3673;52.480;13.348;2023-05-10T05:57:49;4.18;;;3.40;;
7263;SDS011;3673;52.480;13.348;2023-05-10T06:00:16;5.95;;;3.42;;
7263;SDS011;3673;52.480;13.348;2023-05-10T06:02:44;6.15;;;3.28;;
7263;SDS011;3673;52.480;13.348;2023-05-10T06:05:11;6.30;;;3.25;;
7263;SDS011;3673;52.480;13.348;2023-05-10T06:07:38;6.25;;;4.13;;
7263;SDS011;3673;52.480;13.348;2023-05-10T06:10:07;5.82;;;3.30;;
7263;SDS011;3673;52.480;13.348;2023-05-10T06:12:34;6.13;;;3.13;;
7263;SDS011;3673;52.480;13.348;2023-05-10T06:15:00;5.70;;;3.70;;
7263;SDS011;3673;52.480;13.348;2023-05-10T06:17:27;5.05;;;3.53;;
7263;SDS011;3673;52.480;13.348;2023-05-10T06:19:55;4.43;;;3.28;;
7263;SDS011;3673;52.480;13.348;2023-05-10T06:22:22;4.03;;;2.95;;
7263;SDS011;3673;52.480;13.348;2023-05-10T06:24:49;3.22;;;2.67;;
7263;SDS011;3673;52.480;13.348;2023-05-10T06:27:16;4.65;;;3.25;;
7263;SDS011;3673;52.480;13.348;2023-05-10T06:29:43;5.32;;;3.30;;
7263;SDS011;3673;52.480;13.348;2023-05-10T06:32:10;4.28;;;3.03;;
7263;SDS011;3673;52.480;13.348;2023-05-10T06:34:36;6.72;;;3.65;;
7263;SDS011;3673;52.480;13.348;2023-05-10T06:37:04;4.78;;;3.33;;
7263;SDS011;3673;52.480;13.348;2023-05-10T06:39:31;6.43;;;3.45;;
7263;SDS011;3673;52.480;13.348;2023-05-10T06:41:58;10.43;;;3.08;;
7263;SDS011;3673;52.480;13.348;2023-05-10T06:44:26;5.88;;;2.47;;
7263;SDS011;3673;52.480;13.348;2023-05-10T06:46:53;3.70;;;2.53;;
7263;SDS011;3673;52.480;13.348;2023-05-10T06:49:20;4.20;;;2.70;;
7263;SDS011;3673;52.480;13.348;2023-05-10T06:51:47;3.70;;;2.83;;
7263;SDS011;3673;52.480;13.348;2023-05-10T06:54:15;3.75;;;2.80;;
7263;SDS011;3673;52.480;13.348;2023-05-10T06:56:42;7.43;;;2.53;;
7263;SDS011;3673;52.480;13.348;2023-05-10T06:59:09;6.35;;;2.80;;
7263;SDS011;3673;52.480;13.348;2023-05-10T07:01:37;5.65;;;3.10;;
7263;SDS011;3673;52.480;13.348;2023-05-10T07:04:04;5.95;;;3.00;;
7263;SDS011;3673;52.480;13.348;2023-05-10T07:06:32;4.40;;;2.88;;
7263;SDS011;3673;52.480;13.348;2023-05-10T07:08:59;4.75;;;2.50;;
7263;SDS011;3673;52.480;13.348;2023-05-10T07:11:27;3.33;;;2.60;;
7263;SDS011;3673;52.480;13.348;2023-05-10T07:13:54;3.50;;;2.60;;
7263;SDS011;3673;52.480;13.348;2023-05-10T07:16:21;4.25;;;2.70;;
7263;SDS011;3673;52.480;13.348;2023-05-10T07:18:48;5.20;;;2.72;;
7263;SDS011;3673;52.480;13.348;2023-05-10T07:21:15;4.35;;;3.13;;
7263;SDS011;3673;52.480;13.348;2023-05-10T07:23:42;5.82;;;2.90;;
7263;SDS011;3673;52.480;13.348;2023-05-10T07:26:09;4.05;;;2.45;;
7263;SDS011;3673;52.480;13.348;2023-05-10T07:28:37;5.85;;;3.10;;
7263;SDS011;3673;52.480;13.348;2023-05-10T07:31:04;3.88;;;2.25;;
7263;SDS011;3673;52.480;13.348;2023-05-10T07:33:31;5.95;;;2.90;;
7263;SDS011;3673;52.480;13.348;2023-05-10T07:35:58;5.25;;;3.40;;
7263;SDS011;3673;52.480;13.348;2023-05-10T07:38:24;4.05;;;2.78;;
7263;SDS011;3673;52.480;13.348;2023-05-10T07:40:51;5.70;;;3.13;;
7263;SDS011;3673;52.480;13.348;2023-05-10T07:43:18;4.63;;;2.70;;
7263;SDS011;3673;52.480;13.348;2023-05-10T07:45:46;6.15;;;2.53;;
7263;SDS011;3673;52.480;13.348;2023-05-10T07:48:13;2.75;;;2.50;;
7263;SDS011;3673;52.480;13.348;2023-05-10T07:50:40;3.90;;;2.75;;
7263;SDS011;3673;52.480;13.348;2023-05-10T07:53:07;3.85;;;2.53;;
7263;SDS011;3673;52.480;13.348;2023-05-10T07:55:33;4.78;;;2.38;;
7263;SDS011;3673;52.480;13.348;2023-05-10T07:58:00;5.43;;;2.97;;
7263;SDS011;3673;52.480;13.348;2023-05-10T08:00:27;4.40;;;2.70;;
7263;SDS011;3673;52.480;13.348;2023-05-10T08:02:55;6.07;;;2.80;;
7263;SDS011;3673;52.480;13.348;2023-05-10T08:05:22;3.20;;;2.83;;
7263;SDS011;3673;52.480;13.348;2023-05-10T08:07:49;3.00;;;2.60;;
7263;SDS011;3673;52.480;13.348;2023-05-10T08:10:16;3.28;;;2.70;;
7263;SDS011;3673;52.480;13.348;2023-05-10T08:12:43;4.40;;;2.97;;
7263;SDS011;3673;52.480;13.348;2023-05-10T08:15:10;4.95;;;2.78;;
7263;SDS011;3673;52.480;13.348;2023-05-10T08:17:36;2.78;;;2.42;;
7263;SDS011;3673;52.480;13.348;2023-05-10T08:20:05;3.80;;;2.97;;
7263;SDS011;3673;52.480;13.348;2023-05-10T08:22:33;5.00;;;2.53;;
7263;SDS011;3673;52.480;13.348;2023-05-10T08:25:00;5.10;;;2.55;;
7263;SDS011;3673;52.480;13.348;2023-05-10T08:27:26;3.53;;;2.88;;
7263;SDS011;3673;52.480;13.348;2023-05-10T08:29:53;3.47;;;2.38;;
7263;SDS011;3673;52.480;13.348;2023-05-10T08:32:20;3.42;;;2.42;;
7263;SDS011;3673;52.480;13.348;2023-05-10T08:34:46;3.45;;;2.58;;
7263;SDS011;3673;52.480;13.348;2023-05-10T08:37:14;7.65;;;3.22;;
7263;SDS011;3673;52.480;13.348;2023-05-10T08:39:41;5.65;;;2.85;;
7263;SDS011;3673;52.480;13.348;2023-05-10T08:42:08;4.28;;;2.70;;
7263;SDS011;3673;52.480;13.348;2023-05-10T08:44:35;2.90;;;2.10;;
7263;SDS011;3673;52.480;13.348;2023-05-10T08:47:04;4.22;;;3.20;;
7263;SDS011;3673;52.480;13.348;2023-05-10T08:49:32;4.47;;;2.47;;
7263;SDS011;3673;52.480;13.348;2023-05-10T08:51:59;5.45;;;2.65;;
7263;SDS011;3673;52.480;13.348;2023-05-10T08:54:32;6.47;;;2.90;;
7263;SDS011;3673;52.480;13.348;2023-05-10T08:56:59;3.05;;;2.50;;
7263;SDS011;3673;52.480;13.348;2023-05-10T08:59:27;5.20;;;2.75;;
7263;SDS011;3673;52.480;13.348;2023-05-10T09:01:55;6.53;;;3.00;;
7263;SDS011;3673;52.480;13.348;2023-05-10T09:04:23;3.47;;;2.55;;
7263;SDS011;3673;52.480;13.348;2023-05-10T09:06:51;4.03;;;2.80;;
7263;SDS011;3673;52.480;13.348;2023-05-10T09:09:18;4.88;;;2.88;;
7263;SDS011;3673;52.480;13.348;2023-05-10T09:11:47;3.17;;;2.72;;
7263;SDS011;3673;52.480;13.348;2023-05-10T09:14:14;3.80;;;2.88;;
7263;SDS011;3673;52.480;13.348;2023-05-10T09:16:42;4.13;;;2.97;;
7263;SDS011;3673;52.480;13.348;2023-05-10T09:19:09;3.55;;;2.83;;
7263;SDS011;3673;52.480;13.348;2023-05-10T09:21:36;6.90;;;3.17;;
7263;SDS011;3673;52.480;13.348;2023-05-10T09:24:04;4.78;;;3.10;;
7263;SDS011;3673;52.480;13.348;2023-05-10T09:26:32;8.95;;;3.28;;
7263;SDS011;3673;52.480;13.348;2023-05-10T09:29:01;4.90;;;2.70;;
7263;SDS011;3673;52.480;13.348;2023-05-10T09:31:43;3.55;;;3.00;;
7263;SDS011;3673;52.480;13.348;2023-05-10T09:34:15;5.78;;;2.80;;
7263;SDS011;3673;52.480;13.348;2023-05-10T09:36:50;3.85;;;2.85;;
7263;SDS011;3673;52.480;13.348;2023-05-10T09:39:19;2.85;;;2.60;;
7263;SDS011;3673;52.480;13.348;2023-05-10T09:41:46;3.10;;;2.53;;
7263;SDS011;3673;52.480;13.348;2023-05-10T09:44:17;5.32;;;2.50;;
7263;SDS011;3673;52.480;13.348;2023-05-10T09:46:48;5.90;;;2.90;;
7263;SDS011;3673;52.480;13.348;2023-05-10T09:49:17;3.85;;;2.67;;
7263;SDS011;3673;52.480;13.348;2023-05-10T09:51:44;5.28;;;2.85;;
7263;SDS011;3673;52.480;13.348;2023-05-10T09:54:12;4.38;;;2.45;;
7263;SDS011;3673;52.480;13.348;2023-05-10T09:56:41;7.43;;;3.35;;
7263;SDS011;3673;52.480;13.348;2023-05-10T09:59:09;3.25;;;2.95;;
7263;SDS011;3673;52.480;13.348;2023-05-10T10:01:39;4.55;;;3.08;;
7263;SDS011;3673;52.480;13.348;2023-05-10T10:04:08;3.03;;;2.67;;
7263;SDS011;3673;52.480;13.348;2023-05-10T10:06:36;4.40;;;2.92;;
7263;SDS011;3673;52.480;13.348;2023-05-10T10:09:04;3.97;;;3.05;;
7263;SDS011;3673;52.480;13.348;2023-05-10T10:11:31;3.45;;;2.38;;
7263;SDS011;3673;52.480;13.348;2023-05-10T10:14:00;6.90;;;3.08;;
7263;SDS011;3673;52.480;13.348;2023-05-10T10:16:28;5.13;;;3.00;;
7263;SDS011;3673;52.480;13.348;2023-05-10T10:18:57;3.65;;;2.00;;
7263;SDS011;3673;52.480;13.348;2023-05-10T10:21:24;4.88;;;2.85;;
7263;SDS011;3673;52.480;13.348;2023-05-10T10:23:51;4.60;;;3.05;;
7263;SDS011;3673;52.480;13.348;2023-05-10T10:26:18;4.25;;;2.50;;
7263;SDS011;3673;52.480;13.348;2023-05-10T10:28:49;5.55;;;2.60;;
7263;SDS011;3673;52.480;13.348;2023-05-10T10:31:26;4.20;;;2.53;;
7263;SDS011;3673;52.480;13.348;2023-05-10T10:34:06;5.68;;;2.50;;
7263;SDS011;3673;52.480;13.348;2023-05-10T10:36:45;3.92;;;3.13;;
7263;SDS011;3673;52.480;13.348;2023-05-10T10:39:13;2.83;;;2.47;;
7263;SDS011;3673;52.480;13.348;2023-05-10T10:41:49;7.93;;;3.42;;
7263;SDS011;3673;52.480;13.348;2023-05-10T10:44:24;2.90;;;2.60;;
7263;SDS011;3673;52.480;13.348;2023-05-10T10:50:08;3.20;;;2.60;;
7263;SDS011;3673;52.480;13.348;2023-05-10T10:52:38;8.43;;;3.00;;
7263;SDS011;3673;52.480;13.348;2023-05-10T10:55:06;6.05;;;3.50;;
7263;SDS011;3673;52.480;13.348;2023-05-10T10:57:45;4.43;;;2.50;;
7263;SDS011;3673;52.480;13.348;2023-05-10T11:00:20;5.82;;;2.95;;
7263;SDS011;3673;52.480;13.348;2023-05-10T11:02:51;9.60;;;3.25;;
7263;SDS011;3673;52.480;13.348;2023-05-10T11:08:09;6.90;;;3.30;;
7263;SDS011;3673;52.480;13.348;2023-05-10T11:10:51;4.18;;;2.78;;
7263;SDS011;3673;52.480;13.348;2023-05-10T11:13:32;3.65;;;2.65;;
7263;SDS011;3673;52.480;13.348;2023-05-10T11:16:09;3.85;;;2.95;;
7263;SDS011;3673;52.480;13.348;2023-05-10T11:18:51;5.13;;;2.33;;
7263;SDS011;3673;52.480;13.348;2023-05-10T11:21:29;6.47;;;4.90;;
7263;SDS011;3673;52.480;13.348;2023-05-10T11:23:56;12.63;;;7.22;;
7263;SDS011;3673;52.480;13.348;2023-05-10T11:26:29;5.03;;;3.45;;
7263;SDS011;3673;52.480;13.348;2023-05-10T11:28:57;6.93;;;4.00;;
7263;SDS011;3673;52.480;13.348;2023-05-10T11:31:25;4.53;;;3.47;;
7263;SDS011;3673;52.480;13.348;2023-05-10T11:33:52;8.45;;;4.03;;
7263;SDS011;3673;52.480;13.348;2023-05-10T11:36:24;4.18;;;2.92;;
7263;SDS011;3673;52.480;13.348;2023-05-10T11:38:54;12.70;;;6.95;;
7263;SDS011;3673;52.480;13.348;2023-05-10T11:41:23;16.95;;;7.72;;
7263;SDS011;3673;52.480;13.348;2023-05-10T11:43:51;3.30;;;2.58;;
7263;SDS011;3673;52.480;13.348;2023-05-10T11:46:21;4.38;;;2.40;;
7263;SDS011;3673;52.480;13.348;2023-05-10T11:48:51;6.85;;;4.18;;
7263;SDS011;3673;52.480;13.348;2023-05-10T11:51:20;5.72;;;2.70;;
7263;SDS011;3673;52.480;13.348;2023-05-10T11:53:49;7.47;;;2.50;;
7263;SDS011;3673;52.480;13.348;2023-05-10T11:56:19;3.30;;;3.00;;
7263;SDS011;3673;52.480;13.348;2023-05-10T11:58:52;3.47;;;2.90;;
7263;SDS011;3673;52.480;13.348;2023-05-10T12:01:20;6.57;;;2.70;;
7263;SDS011;3673;52.480;13.348;2023-05-10T12:03:48;6.22;;;2.88;;
7263;SDS011;3673;52.480;13.348;2023-05-10T12:06:15;2.85;;;2.22;;
7263;SDS011;3673;52.480;13.348;2023-05-10T12:08:44;2.47;;;2.28;;
7263;SDS011;3673;52.480;13.348;2023-05-10T12:11:11;6.72;;;2.63;;
7263;SDS011;3673;52.480;13.348;2023-05-10T12:13:42;5.65;;;3.03;;
7263;SDS011;3673;52.480;13.348;2023-05-10T12:16:15;2.80;;;2.53;;
7263;SDS011;3673;52.480;13.348;2023-05-10T12:18:44;3.97;;;2.60;;
7263;SDS011;3673;52.480;13.348;2023-05-10T12:21:13;5.70;;;2.67;;
7263;SDS011;3673;52.480;13.348;2023-05-10T12:23:41;2.67;;;2.25;;
7263;SDS011;3673;52.480;13.348;2023-05-10T12:26:11;5.03;;;2.42;;
7263;SDS011;3673;52.480;13.348;2023-05-10T12:28:38;3.45;;;2.83;;
7263;SDS011;3673;52.480;13.348;2023-05-10T12:31:06;4.30;;;2.25;;
7263;SDS011;3673;52.480;13.348;2023-05-10T12:33:35;3.20;;;2.90;;
7263;SDS011;3673;52.480;13.348;2023-05-10T12:36:04;5.10;;;2.67;;
7263;SDS011;3673;52.480;13.348;2023-05-10T12:38:32;6.13;;;2.60;;
7263;SDS011;3673;52.480;13.348;2023-05-10T12:41:03;7.35;;;2.42;;
7263;SDS011;3673;52.480;13.348;2023-05-10T12:43:31;6.47;;;2.60;;
7263;SDS011;3673;52.480;13.348;2023-05-10T12:46:03;3.47;;;2.25;;
7263;SDS011;3673;52.480;13.348;2023-05-10T12:48:33;5.68;;;2.35;;
7263;SDS011;3673;52.480;13.348;2023-05-10T12:51:01;2.65;;;2.17;;
7263;SDS011;3673;52.480;13.348;2023-05-10T12:53:28;4.28;;;2.67;;
7263;SDS011;3673;52.480;13.348;2023-05-10T12:55:55;3.17;;;2.80;;
7263;SDS011;3673;52.480;13.348;2023-05-10T12:58:21;3.13;;;2.50;;
7263;SDS011;3673;52.480;13.348;2023-05-10T13:00:48;10.38;;;2.00;;
7263;SDS011;3673;52.480;13.348;2023-05-10T13:03:17;4.07;;;2.17;;
7263;SDS011;3673;52.480;13.348;2023-05-10T13:05:45;5.30;;;2.10;;
7263;SDS011;3673;52.480;13.348;2023-05-10T13:08:12;4.43;;;2.50;;
7263;SDS011;3673;52.480;13.348;2023-05-10T13:10:40;2.70;;;2.50;;
7263;SDS011;3673;52.480;13.348;2023-05-10T13:13:07;3.13;;;2.63;;
7263;SDS011;3673;52.480;13.348;2023-05-10T13:15:34;3.22;;;2.28;;
7263;SDS011;3673;52.480;13.348;2023-05-10T13:18:01;4.53;;;2.20;;
7263;SDS011;3673;52.480;13.348;2023-05-10T13:20:29;4.10;;;2.50;;
7263;SDS011;3673;52.480;13.348;2023-05-10T13:22:56;6.28;;;2.38;;
7263;SDS011;3673;52.480;13.348;2023-05-10T13:25:23;5.53;;;2.88;;
7263;SDS011;3673;52.480;13.348;2023-05-10T13:27:50;2.78;;;2.30;;
7263;SDS011;3673;52.480;13.348;2023-05-10T13:30:17;3.53;;;2.25;;
7263;SDS011;3673;52.480;13.348;2023-05-10T13:32:45;4.40;;;2.30;;
7263;SDS011;3673;52.480;13.348;2023-05-10T13:35:12;3.15;;;2.13;;
7263;SDS011;3673;52.480;13.348;2023-05-10T13:37:40;4.65;;;3.53;;
7263;SDS011;3673;52.480;13.348;2023-05-10T13:40:07;4.88;;;2.85;;
7263;SDS011;3673;52.480;13.348;2023-05-10T13:42:34;4.00;;;2.60;;
7263;SDS011;3673;52.480;13.348;2023-05-10T13:45:05;10.25;;;3.60;;
7263;SDS011;3673;52.480;13.348;2023-05-10T13:47:32;4.18;;;2.60;;
7263;SDS011;3673;52.480;13.348;2023-05-10T13:49:59;7.22;;;5.10;;
7263;SDS011;3673;52.480;13.348;2023-05-10T13:52:26;2.95;;;2.40;;
7263;SDS011;3673;52.480;13.348;2023-05-10T13:54:54;6.68;;;4.22;;
7263;SDS011;3673;52.480;13.348;2023-05-10T13:57:22;7.20;;;2.42;;
7263;SDS011;3673;52.480;13.348;2023-05-10T13:59:49;4.60;;;2.42;;
7263;SDS011;3673;52.480;13.348;2023-05-10T14:02:16;3.10;;;2.30;;
7263;SDS011;3673;52.480;13.348;2023-05-10T14:04:43;3.75;;;2.60;;
7263;SDS011;3673;52.480;13.348;2023-05-10T14:07:09;8.73;;;2.53;;
7263;SDS011;3673;52.480;13.348;2023-05-10T14:09:36;5.43;;;2.28;;
7263;SDS011;3673;52.480;13.348;2023-05-10T14:12:04;4.95;;;2.45;;
7263;SDS011;3673;52.480;13.348;2023-05-10T14:14:31;5.28;;;2.85;;
7263;SDS011;3673;52.480;13.348;2023-05-10T14:16:58;9.40;;;3.08;;
7263;SDS011;3673;52.480;13.348;2023-05-10T14:19:25;3.72;;;2.78;;
7263;SDS011;3673;52.480;13.348;2023-05-10T14:21:52;4.13;;;2.38;;
7263;SDS011;3673;52.480;13.348;2023-05-10T14:24:19;3.55;;;2.78;;
7263;SDS011;3673;52.480;13.348;2023-05-10T14:26:46;5.53;;;2.63;;
7263;SDS011;3673;52.480;13.348;2023-05-10T14:29:14;3.25;;;2.55;;
7263;SDS011;3673;52.480;13.348;2023-05-10T14:31:41;14.30;;;10.77;;
7263;SDS011;3673;52.480;13.348;2023-05-10T14:34:08;8.68;;;5.40;;
7263;SDS011;3673;52.480;13.348;2023-05-10T14:36:35;3.35;;;2.65;;
7263;SDS011;3673;52.480;13.348;2023-05-10T14:39:01;3.38;;;2.63;;
7263;SDS011;3673;52.480;13.348;2023-05-10T14:41:28;4.63;;;2.58;;
7263;SDS011;3673;52.480;13.348;2023-05-10T14:43:56;2.95;;;2.58;;
7263;SDS011;3673;52.480;13.348;2023-05-10T14:46:24;3.58;;;2.45;;
7263;SDS011;3673;52.480;13.348;2023-05-10T14:48:51;3.88;;;2.70;;
7263;SDS011;3673;52.480;13.348;2023-05-10T14:51:18;4.25;;;3.40;;
7263;SDS011;3673;52.480;13.348;2023-05-10T14:53:46;7.97;;;2.38;;
7263;SDS011;3673;52.480;13.348;2023-05-10T14:56:14;6.60;;;3.17;;
7263;SDS011;3673;52.480;13.348;2023-05-10T14:58:40;4.78;;;2.72;;
7263;SDS011;3673;52.480;13.348;2023-05-10T15:01:07;9.45;;;3.08;;
7263;SDS011;3673;52.480;13.348;2023-05-10T15:03:35;5.47;;;2.65;;
7263;SDS011;3673;52.480;13.348;2023-05-10T15:06:03;5.20;;;3.17;;
7263;SDS011;3673;52.480;13.348;2023-05-10T15:08:30;3.15;;;2.58;;
7263;SDS011;3673;52.480;13.348;2023-05-10T15:10:57;6.30;;;2.80;;
7263;SDS011;3673;52.480;13.348;2023-05-10T15:13:26;5.00;;;2.42;;
7263;SDS011;3673;52.480;13.348;2023-05-10T15:15:53;3.28;;;2.70;;
7263;SDS011;3673;52.480;13.348;2023-05-10T15:18:20;5.00;;;2.60;;